Time;durP1;ratioP1;P1;durP2;ratioP2;P2;SDS_P1;SDS_P2;PMS_P1;PMS_P2;Temp;Humidity;BMP_temperature;BMP_pressure;BME280_temperature;BME280_humidity;BME280_pressure;Samples;Min_cycle;Max_cycle;Signal;HPM_P1;HPM_P2
2020/12/30 00:00:06;;;;;;;102.15;49.60;;;4.80;99.90;;;;;;5053564;28;20056;-80
2020/12/30 00:02:32;;;;;;;109.57;49.67;;;4.80;99.90;;;;;;5061683;28;20389;-80
2020/12/30 00:04:58;;;;;;;108.25;49.05;;;4.80;99.90;;;;;;5060507;28;20036;-80
2020/12/30 00:07:24;;;;;;;103.82;46.65;;;4.80;99.90;;;;;;5057883;28;20032;-80
2020/12/30 00:09:50;;;;;;;102.22;49.40;;;4.80;99.90;;;;;;5053281;28;20033;-80
2020/12/30 00:12:16;;;;;;;99.13;49.08;;;4.80;99.90;;;;;;5053338;28;20024;-80
2020/12/30 00:14:43;;;;;;;114.25;50.00;;;4.80;99.90;;;;;;5052952;28;20032;-80
2020/12/30 00:17:09;;;;;;;102.30;47.20;;;4.80;99.90;;;;;;5060441;28;20104;-80
2020/12/30 00:19:35;;;;;;;104.68;48.83;;;4.80;99.90;;;;;;5053492;28;20033;-80
2020/12/30 00:22:03;;;;;;;102.78;46.63;;;4.80;99.90;;;;;;5053229;28;20038;-80
2020/12/30 00:24:28;;;;;;;108.53;50.67;;;4.80;99.90;;;;;;5079435;28;20409;-80
2020/12/30 00:26:54;;;;;;;101.03;49.30;;;4.90;99.90;;;;;;5052722;28;20023;-80
2020/12/30 00:29:20;;;;;;;109.32;47.58;;;4.80;99.90;;;;;;5052483;28;20547;-80
2020/12/30 00:31:45;;;;;;;98.40;47.10;;;4.90;99.90;;;;;;5052819;28;20020;-80
2020/12/30 00:34:11;;;;;;;111.18;47.58;;;4.90;99.90;;;;;;5053336;28;20119;-80
2020/12/30 00:36:38;;;;;;;97.90;45.33;;;4.90;99.90;;;;;;5061023;28;20563;-80
2020/12/30 00:39:04;;;;;;;100.95;44.88;;;4.80;99.90;;;;;;5052347;28;20078;-79
2020/12/30 00:41:30;;;;;;;93.03;45.90;;;4.80;99.90;;;;;;5052062;28;20043;-80
2020/12/30 00:43:56;;;;;;;106.57;46.58;;;4.80;99.90;;;;;;5052266;28;20496;-80
2020/12/30 00:46:21;;;;;;;94.50;44.25;;;4.80;99.90;;;;;;5052316;28;20063;-80
2020/12/30 00:48:48;;;;;;;106.00;42.90;;;4.80;99.90;;;;;;5070206;28;20032;-80
2020/12/30 00:51:14;;;;;;;92.90;44.53;;;4.80;99.90;;;;;;5044428;28;20024;-79
2020/12/30 00:53:40;;;;;;;99.15;45.97;;;4.80;99.90;;;;;;5052175;28;20064;-80
2020/12/30 00:56:07;;;;;;;104.70;48.20;;;4.70;99.90;;;;;;5060678;28;20526;-80
2020/12/30 00:58:35;;;;;;;107.63;48.85;;;4.70;99.90;;;;;;5078874;28;20484;-80
2020/12/30 01:01:01;;;;;;;101.63;46.20;;;4.70;99.90;;;;;;5059475;28;20107;-80
2020/12/30 01:03:27;;;;;;;104.47;50.08;;;4.70;99.90;;;;;;5061350;28;20063;-80
2020/12/30 01:05:52;;;;;;;96.47;47.92;;;4.70;99.90;;;;;;5069283;28;20056;-80
2020/12/30 01:08:19;;;;;;;114.90;48.80;;;4.70;99.90;;;;;;5060420;28;20028;-80
2020/12/30 01:10:45;;;;;;;102.07;47.72;;;4.70;99.90;;;;;;5050622;28;20020;-80
2020/12/30 01:13:10;;;;;;;100.15;45.88;;;4.60;99.90;;;;;;5052972;28;20112;-80
2020/12/30 01:15:36;;;;;;;107.03;45.20;;;4.70;99.90;;;;;;5052935;28;20033;-80
2020/12/30 01:18:01;;;;;;;91.38;44.25;;;4.70;99.90;;;;;;5051963;28;20028;-80
2020/12/30 01:20:27;;;;;;;100.47;45.80;;;4.70;99.90;;;;;;5057858;28;20024;-80
2020/12/30 01:22:52;;;;;;;91.97;42.55;;;4.60;99.90;;;;;;5065737;28;20111;-80
2020/12/30 01:25:18;;;;;;;83.97;43.00;;;4.60;99.90;;;;;;5069277;28;20123;-80
2020/12/30 01:27:43;;;;;;;91.75;44.13;;;4.70;99.90;;;;;;5069677;28;20047;-80
2020/12/30 01:30:09;;;;;;;101.22;46.78;;;4.70;99.90;;;;;;5070771;28;20697;-80
2020/12/30 01:32:35;;;;;;;95.05;43.25;;;4.70;99.90;;;;;;5066291;28;20059;-80
2020/12/30 01:35:01;;;;;;;84.45;41.10;;;4.70;99.90;;;;;;5067408;28;20639;-80
2020/12/30 01:37:27;;;;;;;90.35;45.08;;;4.70;99.90;;;;;;5068330;28;20130;-80
2020/12/30 01:39:52;;;;;;;101.80;43.47;;;4.70;99.90;;;;;;5051468;28;20032;-80
2020/12/30 01:42:18;;;;;;;98.18;44.33;;;4.70;99.90;;;;;;5051493;28;20027;-81
2020/12/30 01:44:43;;;;;;;89.35;44.60;;;4.70;99.90;;;;;;5069891;28;20040;-80
2020/12/30 01:47:09;;;;;;;99.45;43.92;;;4.60;99.90;;;;;;5089415;28;20740;-80
2020/12/30 01:49:35;;;;;;;89.97;43.17;;;4.60;99.90;;;;;;5051232;28;20024;-81
2020/12/30 01:52:01;;;;;;;88.32;41.90;;;4.60;99.90;;;;;;5059114;28;20035;-81
2020/12/30 01:54:28;;;;;;;95.10;40.03;;;4.60;99.90;;;;;;5054328;28;20122;-80
2020/12/30 01:56:53;;;;;;;94.70;41.80;;;4.60;99.90;;;;;;5056466;28;20024;-81
2020/12/30 01:59:21;;;;;;;79.78;38.88;;;4.50;99.90;;;;;;5053849;28;20432;-80
2020/12/30 02:02:06;;;;;;;93.25;39.53;;;4.50;99.90;;;;;;5050778;28;20021;-80
2020/12/30 02:04:49;;;;;;;86.85;42.63;;;4.40;99.90;;;;;;5050893;28;20051;-80
2020/12/30 02:07:16;;;;;;;90.82;41.15;;;4.40;99.90;;;;;;5050629;28;20411;-81
2020/12/30 02:09:43;;;;;;;88.32;42.63;;;4.40;99.90;;;;;;5050801;28;20024;-81
2020/12/30 02:12:10;;;;;;;77.22;39.70;;;4.40;99.90;;;;;;5054803;28;20020;-81
2020/12/30 02:14:35;;;;;;;93.18;43.03;;;4.30;99.90;;;;;;5051203;28;20366;-81
2020/12/30 02:17:01;;;;;;;97.68;42.63;;;4.30;99.90;;;;;;5050995;28;20090;-81
2020/12/30 02:19:27;;;;;;;101.13;43.28;;;4.30;99.90;;;;;;5051086;28;20071;-81
2020/12/30 02:22:01;;;;;;;94.57;43.17;;;4.30;99.90;;;;;;5051133;28;20029;-81
2020/12/30 02:24:33;;;;;;;101.65;43.03;;;4.30;99.90;;;;;;5069339;28;20086;-81
2020/12/30 02:27:00;;;;;;;107.47;45.78;;;4.30;99.90;;;;;;5050944;28;20123;-80
2020/12/30 02:29:26;;;;;;;99.75;45.33;;;4.30;99.90;;;;;;5050585;28;20027;-81
2020/12/30 02:31:52;;;;;;;98.28;44.45;;;4.30;99.90;;;;;;5074024;28;20089;-81
2020/12/30 02:34:17;;;;;;;101.05;43.90;;;4.40;99.90;;;;;;5061850;28;20423;-81
2020/12/30 02:36:43;;;;;;;96.35;44.95;;;4.40;99.90;;;;;;5070210;28;21582;-81
2020/12/30 02:39:09;;;;;;;96.82;42.78;;;4.40;99.90;;;;;;5073543;28;20033;-80
2020/12/30 02:41:35;;;;;;;101.00;45.92;;;4.50;99.90;;;;;;5068598;28;20117;-81
2020/12/30 02:44:02;;;;;;;107.90;46.05;;;4.50;99.90;;;;;;5055967;28;20053;-81
2020/12/30 02:46:28;;;;;;;101.80;45.78;;;4.50;99.90;;;;;;5050621;28;20059;-81
2020/12/30 02:48:54;;;;;;;89.93;41.88;;;4.50;99.90;;;;;;5050137;28;20063;-81
2020/12/30 02:51:20;;;;;;;92.13;43.22;;;4.60;99.90;;;;;;5055296;28;20438;-81
2020/12/30 02:53:47;;;;;;;82.45;38.15;;;4.60;99.90;;;;;;5057861;28;20028;-81
2020/12/30 02:56:13;;;;;;;91.22;42.55;;;4.50;99.90;;;;;;5069211;28;20101;-81
2020/12/30 02:58:40;;;;;;;84.32;40.83;;;4.50;99.90;;;;;;5050376;28;20029;-81
2020/12/30 03:01:13;;;;;;;97.05;40.47;;;4.50;99.90;;;;;;5059652;28;20393;-81
2020/12/30 03:03:39;;;;;;;89.82;42.70;;;4.50;99.90;;;;;;5057858;28;20029;-81
2020/12/30 03:06:05;;;;;;;86.50;39.63;;;4.50;99.90;;;;;;5050263;28;20484;-81
2020/12/30 03:08:31;;;;;;;89.78;41.67;;;4.50;99.90;;;;;;5050270;28;20028;-81
2020/12/30 03:10:57;;;;;;;83.28;40.17;;;4.50;99.90;;;;;;5058692;28;20029;-81
2020/12/30 03:13:24;;;;;;;86.20;40.83;;;4.60;99.90;;;;;;5051095;28;20144;-81
2020/12/30 03:15:49;;;;;;;83.50;40.90;;;4.60;99.90;;;;;;5088195;28;20354;-81
2020/12/30 03:18:15;;;;;;;87.78;40.08;;;4.60;99.90;;;;;;5059695;28;20027;-81
2020/12/30 03:20:40;;;;;;;86.93;39.88;;;4.60;99.90;;;;;;5069713;28;20109;-81
2020/12/30 03:23:07;;;;;;;76.47;39.58;;;4.60;99.90;;;;;;5066546;28;20032;-81
2020/12/30 03:25:32;;;;;;;81.15;38.20;;;4.60;99.90;;;;;;5053714;28;20550;-81
2020/12/30 03:27:58;;;;;;;78.70;38.78;;;4.60;99.90;;;;;;5053781;28;20020;-81
2020/12/30 03:30:24;;;;;;;80.55;39.60;;;4.60;99.90;;;;;;5076452;28;20024;-81
2020/12/30 03:32:50;;;;;;;84.88;40.03;;;4.60;99.90;;;;;;5073551;28;20121;-81
2020/12/30 03:35:16;;;;;;;83.18;39.22;;;4.60;99.90;;;;;;5073397;28;20059;-81
2020/12/30 03:37:41;;;;;;;72.15;37.90;;;4.60;99.90;;;;;;5086609;28;20055;-79
2020/12/30 03:40:07;;;;;;;71.13;35.85;;;4.60;99.90;;;;;;5072114;28;20032;-81
2020/12/30 03:42:34;;;;;;;80.70;37.85;;;4.50;99.90;;;;;;5053385;28;20045;-80
2020/12/30 03:45:00;;;;;;;83.88;39.75;;;4.50;99.90;;;;;;5053355;28;20527;-80
2020/12/30 03:47:30;;;;;;;68.03;35.42;;;4.50;99.90;;;;;;5073226;28;20115;-80
2020/12/30 03:49:56;;;;;;;78.20;35.47;;;4.50;99.90;;;;;;5076620;28;20020;-80
2020/12/30 03:52:21;;;;;;;78.10;38.95;;;4.50;99.90;;;;;;5071611;28;20077;-81
2020/12/30 03:54:47;;;;;;;80.47;39.33;;;4.50;99.90;;;;;;5065751;28;20034;-81
2020/12/30 03:57:12;;;;;;;72.47;36.97;;;4.50;99.90;;;;;;5072819;28;20435;-81
2020/12/30 03:59:38;;;;;;;76.20;38.35;;;4.60;99.90;;;;;;5053068;28;20028;-80
2020/12/30 04:02:03;;;;;;;82.63;36.53;;;4.60;99.90;;;;;;5053299;28;20089;-81
2020/12/30 04:04:29;;;;;;;78.60;36.03;;;4.60;99.90;;;;;;5053536;28;20127;-81
2020/12/30 04:06:55;;;;;;;75.60;34.88;;;4.50;99.90;;;;;;5052589;28;20424;-81
2020/12/30 04:09:20;;;;;;;72.93;37.92;;;4.60;99.90;;;;;;5053282;28;20024;-81
2020/12/30 04:11:46;;;;;;;75.82;36.72;;;4.50;99.90;;;;;;5053085;28;20020;-81
2020/12/30 04:14:11;;;;;;;69.35;35.17;;;4.50;99.90;;;;;;5062850;28;20028;-81
2020/12/30 04:16:37;;;;;;;64.78;34.00;;;4.50;99.90;;;;;;5090875;28;20485;-80
2020/12/30 04:19:02;;;;;;;71.85;35.65;;;4.60;99.90;;;;;;5056931;28;20465;-81
2020/12/30 04:21:28;;;;;;;79.05;35.10;;;4.50;99.90;;;;;;5053175;28;20074;-81
2020/12/30 04:23:54;;;;;;;69.40;35.70;;;4.50;99.90;;;;;;5071095;28;20083;-81
2020/12/30 04:26:20;;;;;;;71.22;33.78;;;4.50;99.90;;;;;;5070976;28;20052;-81
2020/12/30 04:28:48;;;;;;;73.32;35.53;;;4.50;99.90;;;;;;5053008;28;20020;-81
2020/12/30 04:31:15;;;;;;;73.20;34.35;;;4.60;99.90;;;;;;5057644;28;20495;-81
2020/12/30 04:33:41;;;;;;;65.88;32.67;;;4.60;99.90;;;;;;5062206;28;20024;-81
2020/12/30 04:36:08;;;;;;;69.95;34.08;;;4.60;99.90;;;;;;5067358;28;20020;-82
2020/12/30 04:38:35;;;;;;;66.63;33.75;;;4.60;99.90;;;;;;5052733;28;20031;-80
2020/12/30 04:41:14;;;;;;;67.47;32.60;;;4.60;99.90;;;;;;5052604;28;20036;-81
2020/12/30 04:43:44;;;;;;;60.92;31.63;;;4.60;99.90;;;;;;5052840;28;20043;-81
2020/12/30 04:46:13;;;;;;;65.28;33.72;;;4.50;99.90;;;;;;5070706;28;20044;-81
2020/12/30 04:48:40;;;;;;;66.50;31.45;;;4.60;99.90;;;;;;5052014;28;20025;-81
2020/12/30 04:51:07;;;;;;;64.85;32.15;;;4.60;99.90;;;;;;5053613;28;20516;-81
2020/12/30 04:53:34;;;;;;;64.55;32.55;;;4.60;99.90;;;;;;5070460;28;20396;-81
2020/12/30 04:56:01;;;;;;;53.28;27.40;;;4.60;99.90;;;;;;5071790;28;20027;-81
2020/12/30 04:58:31;;;;;;;61.35;29.92;;;4.60;99.90;;;;;;5079581;28;20060;-81
2020/12/30 05:01:00;;;;;;;66.50;30.33;;;4.50;99.90;;;;;;5065273;28;20382;-81
2020/12/30 05:03:31;;;;;;;60.75;31.27;;;4.50;99.90;;;;;;5060350;28;20385;-81
2020/12/30 05:06:03;;;;;;;58.88;31.23;;;4.50;99.90;;;;;;5065174;28;20038;-81
2020/12/30 05:08:32;;;;;;;55.85;29.80;;;4.50;99.90;;;;;;5069939;28;20455;-81
2020/12/30 05:10:59;;;;;;;58.38;29.08;;;4.50;99.90;;;;;;5045617;28;20046;-81
2020/12/30 05:13:25;;;;;;;56.88;29.30;;;4.50;99.90;;;;;;5059668;28;20020;-81
2020/12/30 05:15:51;;;;;;;64.72;28.90;;;4.50;99.90;;;;;;5052369;28;20056;-81
2020/12/30 05:18:19;;;;;;;63.38;32.00;;;4.50;99.90;;;;;;5051742;28;20430;-80
2020/12/30 05:20:45;;;;;;;58.75;30.85;;;4.40;99.90;;;;;;5051790;28;20120;-80
2020/12/30 05:23:12;;;;;;;62.72;32.08;;;4.40;99.90;;;;;;5051257;28;20025;-81
2020/12/30 05:25:46;;;;;;;68.30;32.10;;;4.40;99.90;;;;;;5051540;28;20041;-81
2020/12/30 05:28:13;;;;;;;67.30;31.50;;;4.40;99.90;;;;;;5056224;28;20439;-81
2020/12/30 05:30:43;;;;;;;61.17;30.42;;;4.40;99.90;;;;;;5066541;28;20061;-81
2020/12/30 05:33:09;;;;;;;67.72;32.17;;;4.40;99.90;;;;;;5049022;28;20434;-80
2020/12/30 05:35:35;;;;;;;65.20;31.40;;;4.40;99.90;;;;;;5051164;28;20389;-81
2020/12/30 05:38:02;;;;;;;59.03;31.23;;;4.40;99.90;;;;;;5070842;28;20042;-81
2020/12/30 05:40:31;;;;;;;63.03;31.65;;;4.30;99.90;;;;;;5051392;28;20119;-81
2020/12/30 05:43:17;;;;;;;62.35;30.55;;;4.40;99.90;;;;;;5046529;28;20049;-80
2020/12/30 05:45:53;;;;;;;61.55;30.73;;;4.40;99.90;;;;;;5048116;28;20045;-80
2020/12/30 05:48:20;;;;;;;65.40;31.33;;;4.40;99.90;;;;;;5046861;28;20382;-80
2020/12/30 05:50:57;;;;;;;51.85;27.95;;;4.30;99.90;;;;;;5050035;28;20090;-79
2020/12/30 05:53:24;;;;;;;59.05;28.30;;;4.40;99.90;;;;;;5048931;28;20044;-79
2020/12/30 05:56:09;;;;;;;58.00;28.65;;;4.40;99.90;;;;;;5052507;28;20358;-79
2020/12/30 05:58:46;;;;;;;57.42;29.40;;;4.40;99.90;;;;;;5049114;28;20029;-79
2020/12/30 06:01:27;;;;;;;55.65;30.08;;;4.40;99.90;;;;;;5046752;28;20029;-79
2020/12/30 06:04:13;;;;;;;64.13;30.83;;;4.40;99.90;;;;;;5051492;28;20026;-80
2020/12/30 06:06:42;;;;;;;61.53;31.35;;;4.40;99.90;;;;;;5060945;28;20037;-80
2020/12/30 06:09:14;;;;;;;62.33;29.17;;;4.40;99.90;;;;;;5047037;28;20029;-80
2020/12/30 06:11:54;;;;;;;60.88;31.35;;;4.40;99.90;;;;;;5047497;28;20058;-80
2020/12/30 06:14:21;;;;;;;61.38;30.70;;;4.40;99.90;;;;;;5051514;28;20050;-80
2020/12/30 06:16:47;;;;;;;58.83;30.20;;;4.40;99.90;;;;;;5062207;28;20454;-80
2020/12/30 06:19:14;;;;;;;54.97;27.25;;;4.40;99.90;;;;;;5052014;28;20116;-80
2020/12/30 06:21:46;;;;;;;55.53;27.30;;;4.40;99.90;;;;;;5051826;28;20025;-80
2020/12/30 06:24:15;;;;;;;58.95;30.20;;;4.40;99.90;;;;;;5048775;28;20377;-80
2020/12/30 06:26:42;;;;;;;64.38;29.48;;;4.40;99.90;;;;;;5049703;28;20071;-80
2020/12/30 06:29:11;;;;;;;65.40;27.13;;;4.40;99.90;;;;;;5052976;28;20029;-80
2020/12/30 06:31:55;;;;;;;57.58;28.33;;;4.40;99.90;;;;;;5045162;28;20037;-80
2020/12/30 06:34:21;;;;;;;57.08;30.02;;;4.30;99.90;;;;;;5047674;28;20040;-80
2020/12/30 06:36:46;;;;;;;56.17;29.95;;;4.30;99.90;;;;;;5047227;28;20032;-79
2020/12/30 06:39:16;;;;;;;53.85;28.02;;;4.30;99.90;;;;;;5046419;28;20025;-79
2020/12/30 06:41:54;;;;;;;63.20;28.83;;;4.30;99.90;;;;;;5047693;28;20040;-81
2020/12/30 06:44:36;;;;;;;60.88;29.83;;;4.30;99.90;;;;;;5051350;28;20052;-80
2020/12/30 06:47:03;;;;;;;69.57;30.52;;;4.30;99.90;;;;;;5060763;28;20112;-80
2020/12/30 06:49:29;;;;;;;51.08;28.45;;;4.40;99.90;;;;;;5046057;28;20113;-80
2020/12/30 06:51:54;;;;;;;55.90;28.58;;;4.20;99.90;;;;;;5048823;28;20033;-80
2020/12/30 06:54:20;;;;;;;66.25;30.38;;;4.30;99.90;;;;;;5047704;28;20031;-81
2020/12/30 06:56:47;;;;;;;63.17;30.50;;;4.30;99.90;;;;;;5055327;28;20485;-80
2020/12/30 06:59:16;;;;;;;58.25;30.15;;;4.40;99.90;;;;;;5050147;28;20498;-81
2020/12/30 07:01:58;;;;;;;65.72;30.13;;;4.40;99.90;;;;;;5049464;28;20056;-79
2020/12/30 07:04:25;;;;;;;59.30;29.83;;;4.30;99.90;;;;;;5052242;28;20044;-80
2020/12/30 07:06:53;;;;;;;60.55;30.35;;;4.30;99.90;;;;;;5050555;28;20051;-80
2020/12/30 07:09:30;;;;;;;61.53;32.28;;;4.20;99.90;;;;;;5053107;28;20028;-80
2020/12/30 07:12:03;;;;;;;58.63;31.08;;;4.20;99.90;;;;;;5050261;28;20067;-80
2020/12/30 07:14:30;;;;;;;59.50;31.30;;;4.20;99.90;;;;;;5049692;28;20119;-80
2020/12/30 07:17:00;;;;;;;65.53;30.50;;;4.20;99.90;;;;;;5050949;28;20067;-80
2020/12/30 07:19:33;;;;;;;65.32;29.45;;;4.20;99.90;;;;;;5049690;28;20033;-80
2020/12/30 07:21:59;;;;;;;66.93;32.45;;;4.20;99.90;;;;;;5073076;28;20032;-79
2020/12/30 07:24:43;;;;;;;63.13;28.95;;;4.10;99.90;;;;;;5053524;28;20045;-80
2020/12/30 07:27:14;;;;;;;60.70;31.83;;;4.10;99.90;;;;;;5053205;28;20033;-79
2020/12/30 07:29:41;;;;;;;62.90;31.08;;;4.10;99.90;;;;;;5060052;28;20029;-79
2020/12/30 07:32:08;;;;;;;64.50;31.00;;;4.10;99.90;;;;;;5050049;28;20064;-79
2020/12/30 07:34:38;;;;;;;73.75;32.60;;;4.10;99.90;;;;;;5049807;28;20420;-79
2020/12/30 07:37:04;;;;;;;63.88;31.85;;;4.10;99.90;;;;;;5055564;28;20083;-79
2020/12/30 07:39:38;;;;;;;69.47;33.20;;;4.00;99.90;;;;;;5049693;28;20037;-80
2020/12/30 07:42:04;;;;;;;62.05;30.05;;;4.10;99.90;;;;;;5055382;28;20078;-80
2020/12/30 07:44:30;;;;;;;70.07;32.88;;;4.10;99.90;;;;;;5068652;28;20041;-80
2020/12/30 07:47:03;;;;;;;61.85;28.20;;;4.10;99.90;;;;;;5052294;28;20384;-80
2020/12/30 07:49:30;;;;;;;66.35;33.45;;;4.10;99.90;;;;;;5053943;28;20118;-80
2020/12/30 07:51:57;;;;;;;66.22;32.50;;;4.00;99.90;;;;;;5056451;28;20016;-80
2020/12/30 07:54:24;;;;;;;80.78;35.75;;;4.00;99.90;;;;;;5052643;28;20161;-80
2020/12/30 07:56:51;;;;;;;75.03;32.72;;;4.10;99.90;;;;;;5056100;28;20068;-80
2020/12/30 07:59:24;;;;;;;68.30;34.33;;;4.00;99.90;;;;;;5061644;28;20035;-80
2020/12/30 08:01:57;;;;;;;74.25;35.03;;;4.00;99.90;;;;;;5071033;28;20508;-80
2020/12/30 08:04:23;;;;;;;75.40;33.92;;;4.00;99.90;;;;;;5068251;28;20040;-80
2020/12/30 08:06:49;;;;;;;77.13;35.65;;;4.00;99.90;;;;;;5046980;28;20048;-80
2020/12/30 08:09:15;;;;;;;72.63;33.78;;;4.00;99.90;;;;;;5056357;28;20067;-79
2020/12/30 08:11:55;;;;;;;75.20;34.40;;;4.00;99.90;;;;;;5076348;28;20043;-80
2020/12/30 08:14:22;;;;;;;69.35;35.40;;;4.00;99.90;;;;;;5059949;28;20029;-80
2020/12/30 08:16:59;;;;;;;83.65;36.13;;;4.00;99.90;;;;;;5050971;28;20119;-80
2020/12/30 08:19:45;;;;;;;74.82;35.42;;;4.00;99.90;;;;;;5055222;28;20029;-80
2020/12/30 08:22:16;;;;;;;86.90;35.97;;;4.00;99.90;;;;;;5047112;28;20101;-82
2020/12/30 08:24:43;;;;;;;79.28;35.10;;;3.90;99.90;;;;;;5052711;28;20036;-80
2020/12/30 08:27:11;;;;;;;82.05;36.25;;;4.00;99.90;;;;;;5055889;28;20066;-80
2020/12/30 08:29:42;;;;;;;77.25;35.78;;;4.00;99.90;;;;;;5071869;28;20059;-80
2020/12/30 08:32:30;;;;;;;82.25;37.58;;;4.00;99.90;;;;;;5046770;28;20112;-80
2020/12/30 08:35:09;;;;;;;80.28;35.75;;;4.00;99.90;;;;;;5032400;28;20418;-80
2020/12/30 08:37:38;;;;;;;87.47;37.78;;;4.00;99.90;;;;;;5024191;28;20028;-79
2020/12/30 08:40:03;;;;;;;76.80;36.75;;;4.00;99.90;;;;;;5034739;28;20033;-79
2020/12/30 08:42:53;;;;;;;73.25;34.72;;;4.00;99.90;;;;;;5030320;28;20183;-79
2020/12/30 08:45:30;;;;;;;74.25;35.92;;;4.00;99.90;;;;;;5026884;28;20060;-80
2020/12/30 08:48:07;;;;;;;72.90;34.97;;;4.10;99.90;;;;;;5026870;28;20029;-80
2020/12/30 08:50:33;;;;;;;77.63;36.33;;;4.10;99.90;;;;;;5045573;28;20066;-80
2020/12/30 08:53:01;;;;;;;81.18;35.85;;;4.10;99.90;;;;;;5014736;28;20056;-80
2020/12/30 08:55:26;;;;;;;83.95;36.72;;;4.10;99.90;;;;;;5010297;28;20040;-80
2020/12/30 08:57:52;;;;;;;82.95;37.25;;;4.10;99.90;;;;;;5030384;28;20055;-80
2020/12/30 09:00:22;;;;;;;74.05;35.72;;;4.20;99.90;;;;;;5008902;28;20037;-80
2020/12/30 09:02:50;;;;;;;88.30;38.17;;;4.20;99.90;;;;;;4993135;28;20100;-80
2020/12/30 09:05:29;;;;;;;74.32;34.30;;;4.20;99.90;;;;;;4996969;28;20041;-80
2020/12/30 09:07:54;;;;;;;80.35;38.28;;;4.20;99.90;;;;;;5007546;28;20053;-80
2020/12/30 09:10:20;;;;;;;81.32;37.85;;;4.30;99.90;;;;;;5009195;28;20030;-80
2020/12/30 09:12:47;;;;;;;76.10;38.38;;;4.30;99.90;;;;;;5006539;28;20025;-80
2020/12/30 09:15:15;;;;;;;86.70;37.92;;;4.30;99.90;;;;;;4997916;28;20138;-79
2020/12/30 09:17:42;;;;;;;81.10;37.33;;;4.30;99.90;;;;;;4997716;28;20033;-80
2020/12/30 09:20:13;;;;;;;82.00;36.88;;;4.40;99.90;;;;;;5006867;28;20091;-80
2020/12/30 09:22:41;;;;;;;75.75;37.28;;;4.30;99.90;;;;;;4989137;28;20050;-80
2020/12/30 09:25:07;;;;;;;75.03;37.95;;;4.30;99.90;;;;;;4988694;28;20046;-80
2020/12/30 09:27:36;;;;;;;77.95;36.53;;;4.30;99.90;;;;;;4984142;28;20045;-80
2020/12/30 09:30:18;;;;;;;77.38;36.47;;;4.40;99.90;;;;;;4982573;28;20053;-80
2020/12/30 09:32:44;;;;;;;75.55;35.92;;;4.40;99.90;;;;;;4972015;28;20117;-80
2020/12/30 09:35:12;;;;;;;75.38;38.45;;;4.40;99.90;;;;;;4972621;28;20394;-80
2020/12/30 09:37:39;;;;;;;84.18;38.33;;;4.30;99.90;;;;;;4967988;28;20039;-80
2020/12/30 09:40:10;;;;;;;87.88;40.70;;;4.40;99.90;;;;;;4966413;28;20038;-80
2020/12/30 09:42:37;;;;;;;80.80;38.75;;;4.30;99.90;;;;;;4965475;28;20440;-80
2020/12/30 09:45:05;;;;;;;95.05;42.83;;;4.30;99.90;;;;;;4965971;28;20035;-80
2020/12/30 09:47:31;;;;;;;90.82;40.53;;;4.40;99.90;;;;;;4989830;28;20137;-80
2020/12/30 09:49:57;;;;;;;102.43;41.22;;;4.40;99.90;;;;;;4988816;28;20124;-80
2020/12/30 09:52:22;;;;;;;87.57;40.75;;;4.40;99.90;;;;;;4986295;28;20088;-79
2020/12/30 09:54:48;;;;;;;95.10;41.20;;;4.40;99.90;;;;;;5044473;28;20036;-79
2020/12/30 09:57:13;;;;;;;92.90;41.33;;;4.40;99.90;;;;;;5049290;28;20021;-79
2020/12/30 09:59:39;;;;;;;81.22;38.63;;;4.30;99.90;;;;;;5048995;28;20564;-80
2020/12/30 10:02:04;;;;;;;83.18;38.35;;;4.30;99.90;;;;;;5046784;28;20503;-79
2020/12/30 10:04:30;;;;;;;85.93;36.90;;;4.30;99.90;;;;;;5064743;28;20052;-80
2020/12/30 10:06:56;;;;;;;74.72;35.30;;;4.30;99.90;;;;;;5046444;28;20034;-80
2020/12/30 10:09:21;;;;;;;82.10;38.80;;;4.40;99.90;;;;;;5051118;28;20103;-79
2020/12/30 10:11:49;;;;;;;82.72;36.28;;;4.40;99.90;;;;;;5067568;28;20966;-80
2020/12/30 10:14:16;;;;;;;81.75;37.45;;;4.40;99.90;;;;;;5065803;28;20028;-80
2020/12/30 10:16:41;;;;;;;86.45;37.70;;;4.50;99.90;;;;;;5064256;28;20375;-80
2020/12/30 10:19:07;;;;;;;75.72;35.92;;;4.40;99.90;;;;;;5064881;28;20024;-80
2020/12/30 10:21:33;;;;;;;76.65;36.35;;;4.40;99.90;;;;;;5048817;28;20021;-80
2020/12/30 10:23:58;;;;;;;74.45;35.42;;;4.50;99.90;;;;;;5048333;28;20063;-80
2020/12/30 10:26:24;;;;;;;83.53;36.95;;;4.40;99.90;;;;;;5064073;28;20075;-80
2020/12/30 10:28:50;;;;;;;82.80;37.97;;;4.50;99.90;;;;;;5047833;28;20035;-81
2020/12/30 10:31:16;;;;;;;78.25;36.13;;;4.50;99.90;;;;;;5052642;28;20142;-81
2020/12/30 10:33:42;;;;;;;79.85;35.45;;;4.40;99.90;;;;;;5068117;28;20048;-81
2020/12/30 10:36:10;;;;;;;83.13;37.60;;;4.60;99.90;;;;;;5049615;28;20116;-81
2020/12/30 10:38:36;;;;;;;76.45;35.17;;;4.50;99.90;;;;;;5080731;28;20025;-81
2020/12/30 10:41:02;;;;;;;77.35;34.70;;;4.60;99.90;;;;;;5072925;28;20055;-81
2020/12/30 10:43:28;;;;;;;72.28;34.22;;;4.60;99.90;;;;;;5051400;28;20068;-80
2020/12/30 10:45:53;;;;;;;80.00;36.17;;;4.60;99.90;;;;;;5047790;28;20033;-81
2020/12/30 10:48:19;;;;;;;80.20;35.58;;;4.60;99.90;;;;;;5050784;28;20047;-80
2020/12/30 10:50:46;;;;;;;73.85;33.95;;;4.60;99.90;;;;;;5070607;28;20050;-80
2020/12/30 10:53:12;;;;;;;75.15;34.00;;;4.60;99.90;;;;;;5062330;28;20047;-80
2020/12/30 10:55:37;;;;;;;68.80;32.25;;;4.70;99.90;;;;;;5058564;28;20024;-81
2020/12/30 10:58:03;;;;;;;75.03;34.03;;;4.80;99.90;;;;;;5086925;28;20025;-82
2020/12/30 11:00:28;;;;;;;68.32;34.58;;;4.80;99.90;;;;;;5086542;28;20029;-81
2020/12/30 11:02:54;;;;;;;64.80;33.55;;;4.80;99.90;;;;;;5074101;28;20035;-81
2020/12/30 11:05:20;;;;;;;64.55;32.75;;;4.80;99.90;;;;;;5069482;28;20033;-81
2020/12/30 11:07:45;;;;;;;76.43;33.63;;;4.80;99.90;;;;;;5053008;28;20032;-81
2020/12/30 11:10:12;;;;;;;62.03;33.25;;;4.90;99.90;;;;;;5055435;28;20594;-81
2020/12/30 11:12:38;;;;;;;67.68;34.08;;;5.00;99.90;;;;;;5051552;28;20476;-81
2020/12/30 11:15:05;;;;;;;66.70;32.08;;;5.10;99.90;;;;;;5067876;28;20029;-81
2020/12/30 11:17:31;;;;;;;69.40;32.78;;;5.10;99.90;;;;;;5053503;28;20035;-81
2020/12/30 11:19:56;;;;;;;60.50;31.67;;;5.00;99.90;;;;;;5054605;28;20092;-81
2020/12/30 11:22:23;;;;;;;66.93;33.25;;;5.00;99.90;;;;;;5069210;28;20187;-81
2020/12/30 11:24:49;;;;;;;74.93;33.78;;;5.00;99.90;;;;;;5067695;28;20044;-79
2020/12/30 11:27:16;;;;;;;71.53;33.17;;;5.10;99.90;;;;;;5054527;28;20028;-80
2020/12/30 11:29:43;;;;;;;65.00;32.40;;;5.20;99.90;;;;;;5037668;28;20508;-80
2020/12/30 11:32:09;;;;;;;62.40;31.73;;;5.20;99.90;;;;;;5052885;28;20529;-79
2020/12/30 11:34:35;;;;;;;66.03;31.08;;;5.20;99.90;;;;;;5068103;28;20129;-79
2020/12/30 11:37:00;;;;;;;62.78;31.27;;;5.20;99.90;;;;;;5051334;28;20385;-80
2020/12/30 11:39:27;;;;;;;63.53;30.85;;;5.30;99.90;;;;;;5065695;28;20024;-80
2020/12/30 11:41:53;;;;;;;63.10;29.80;;;5.30;99.90;;;;;;5048099;28;20116;-80
2020/12/30 11:44:20;;;;;;;60.40;29.73;;;5.30;99.90;;;;;;5052194;28;20170;-80
2020/12/30 11:46:52;;;;;;;58.40;30.73;;;5.30;99.90;;;;;;5064941;28;20035;-80
2020/12/30 11:49:19;;;;;;;64.40;32.28;;;5.40;99.90;;;;;;5066622;28;20103;-80
2020/12/30 11:51:45;;;;;;;60.50;29.75;;;5.30;99.90;;;;;;5059200;28;20028;-80
2020/12/30 11:54:10;;;;;;;60.35;31.02;;;5.30;99.90;;;;;;5052401;28;20020;-80
2020/12/30 11:56:36;;;;;;;62.33;29.73;;;5.30;99.90;;;;;;5051662;28;20119;-81
2020/12/30 11:59:02;;;;;;;67.53;31.23;;;5.30;99.90;;;;;;5066308;28;20493;-81
2020/12/30 12:01:35;;;;;;;63.03;29.17;;;5.20;99.90;;;;;;5051837;28;20158;-80
2020/12/30 12:04:03;;;;;;;61.45;28.95;;;5.20;99.90;;;;;;5050269;28;20044;-80
2020/12/30 12:06:28;;;;;;;57.67;30.92;;;5.30;99.90;;;;;;5050995;28;20039;-81
2020/12/30 12:08:54;;;;;;;61.03;30.08;;;5.30;99.90;;;;;;5049296;28;20029;-80
2020/12/30 12:11:20;;;;;;;60.85;29.55;;;5.40;99.90;;;;;;5050048;28;20112;-80
2020/12/30 12:13:46;;;;;;;65.45;29.30;;;5.30;99.90;;;;;;5066543;28;20024;-80
2020/12/30 12:16:14;;;;;;;59.17;30.75;;;5.30;99.90;;;;;;5030652;28;20032;-79
2020/12/30 12:18:41;;;;;;;64.63;30.15;;;5.30;99.90;;;;;;5063909;28;20185;-79
2020/12/30 12:21:07;;;;;;;60.35;29.23;;;5.30;99.90;;;;;;5068734;28;20475;-80
2020/12/30 12:23:33;;;;;;;57.38;30.00;;;5.30;99.90;;;;;;5053482;28;20083;-81
2020/12/30 12:25:59;;;;;;;59.58;29.10;;;5.40;99.90;;;;;;5053212;28;20040;-80
2020/12/30 12:28:42;;;;;;;61.95;32.15;;;5.30;99.90;;;;;;5050586;28;20180;-79
2020/12/30 12:31:14;;;;;;;61.40;29.55;;;5.30;99.90;;;;;;5068497;28;20024;-81
2020/12/30 12:33:40;;;;;;;62.78;27.85;;;5.40;99.90;;;;;;5052396;28;20020;-80
2020/12/30 12:36:15;;;;;;;64.00;28.25;;;5.30;99.90;;;;;;5069118;28;20142;-80
2020/12/30 12:38:42;;;;;;;60.63;29.40;;;5.30;99.90;;;;;;5050110;28;20102;-80